Time;durP1;ratioP1;P1;durP2;ratioP2;P2;SDS_P1;SDS_P2;PMS_P1;PMS_P2;Temp;Humidity;BMP_temperature;BMP_pressure;BME280_temperature;BME280_humidity;BME280_pressure;Samples;Min_cycle;Max_cycle;Signal;HPM_P1;HPM_P2
2021/09/09 00:01:23;;;;;;;8.45;7.32;;;20.90;92.60;;;;;;5092237;28;20032;-62
2021/09/09 00:03:49;;;;;;;10.20;7.10;;;20.90;92.60;;;;;;5090378;28;20147;-62
2021/09/09 00:06:15;;;;;;;7.65;6.68;;;20.90;92.80;;;;;;5085599;28;20035;-62
2021/09/09 00:08:40;;;;;;;9.10;6.45;;;20.90;92.70;;;;;;5070904;28;20025;-61
2021/09/09 00:11:06;;;;;;;9.57;6.75;;;20.90;92.70;;;;;;5072588;28;20099;-61
2021/09/09 00:13:32;;;;;;;8.07;7.28;;;20.80;92.80;;;;;;5071281;28;20024;-61
2021/09/09 00:15:58;;;;;;;7.93;6.53;;;20.80;92.70;;;;;;5071230;28;20060;-62
2021/09/09 00:18:23;;;;;;;9.10;7.22;;;20.90;92.70;;;;;;5070586;28;20469;-61
2021/09/09 00:20:49;;;;;;;10.13;6.10;;;20.80;92.70;;;;;;5071101;28;20028;-61
2021/09/09 00:23:15;;;;;;;8.98;6.10;;;20.80;92.70;;;;;;5072011;28;20041;-60
2021/09/09 00:25:40;;;;;;;9.50;7.07;;;20.80;92.90;;;;;;5069624;28;20049;-60
2021/09/09 00:28:06;;;;;;;7.72;6.50;;;20.80;92.90;;;;;;5071894;28;20391;-60
2021/09/09 00:30:31;;;;;;;10.80;6.60;;;20.80;92.90;;;;;;5070991;28;20024;-61
2021/09/09 00:32:57;;;;;;;10.88;6.80;;;20.80;93.00;;;;;;5071254;28;20036;-61
2021/09/09 00:35:23;;;;;;;8.45;5.95;;;20.80;93.00;;;;;;5071118;28;20029;-60
2021/09/09 00:37:48;;;;;;;9.07;7.10;;;20.70;93.00;;;;;;5070387;28;20040;-60
2021/09/09 00:40:14;;;;;;;22.13;7.07;;;20.70;93.10;;;;;;5071397;28;20063;-59
2021/09/09 00:42:41;;;;;;;6.63;5.93;;;20.70;93.00;;;;;;5070919;28;20127;-61
2021/09/09 00:45:07;;;;;;;10.73;6.53;;;20.70;93.00;;;;;;5071764;28;20028;-61
2021/09/09 00:47:33;;;;;;;8.65;6.70;;;20.70;93.10;;;;;;5069314;28;20025;-62
2021/09/09 00:49:58;;;;;;;6.95;6.10;;;20.70;93.10;;;;;;5071800;28;20069;-62
2021/09/09 00:52:24;;;;;;;12.48;6.35;;;20.70;93.10;;;;;;5071583;28;20440;-61
2021/09/09 00:54:50;;;;;;;7.55;6.07;;;20.60;93.10;;;;;;5069636;28;20056;-61
2021/09/09 00:57:17;;;;;;;8.82;6.40;;;20.60;93.00;;;;;;5071532;28;20428;-61
2021/09/09 00:59:44;;;;;;;16.35;7.28;;;20.50;93.20;;;;;;5069380;28;20466;-60
2021/09/09 01:02:11;;;;;;;10.93;7.03;;;20.50;93.30;;;;;;5071386;28;20041;-60
2021/09/09 01:04:37;;;;;;;10.50;6.50;;;20.60;93.50;;;;;;5069351;28;20446;-64
2021/09/09 01:07:03;;;;;;;9.18;6.80;;;20.50;93.30;;;;;;5071525;28;20501;-61
2021/09/09 01:09:29;;;;;;;13.85;6.78;;;20.50;93.20;;;;;;5071459;28;20036;-59
2021/09/09 01:11:55;;;;;;;8.75;7.20;;;20.50;93.30;;;;;;5070573;28;20103;-61
2021/09/09 01:14:21;;;;;;;8.48;6.90;;;20.50;93.20;;;;;;5069689;28;20032;-60
2021/09/09 01:16:48;;;;;;;7.50;6.10;;;20.50;93.20;;;;;;5070127;28;20462;-61
2021/09/09 01:19:15;;;;;;;8.60;6.35;;;20.50;93.30;;;;;;5071164;28;20103;-60
2021/09/09 01:21:41;;;;;;;8.88;6.20;;;20.60;93.30;;;;;;5070428;28;20037;-60
2021/09/09 01:24:13;;;;;;;11.85;6.85;;;20.50;93.20;;;;;;5069392;28;20411;-60
2021/09/09 01:27:06;;;;;;;7.32;6.40;;;20.50;93.40;;;;;;5070565;28;20496;-61
2021/09/09 01:29:35;;;;;;;7.45;6.40;;;20.50;93.20;;;;;;5070454;28;20032;-73
2021/09/09 01:32:01;;;;;;;7.50;6.53;;;20.50;93.20;;;;;;5071049;28;20040;-60
2021/09/09 01:34:28;;;;;;;9.85;6.93;;;20.40;93.40;;;;;;5069572;28;20041;-60
2021/09/09 01:36:55;;;;;;;9.10;6.40;;;20.40;93.30;;;;;;5070220;28;20036;-60
2021/09/09 01:39:21;;;;;;;7.75;6.72;;;20.50;93.20;;;;;;5070990;28;20029;-60
2021/09/09 01:41:55;;;;;;;8.48;6.72;;;20.40;93.20;;;;;;5068891;28;20044;-61
2021/09/09 01:44:21;;;;;;;8.18;6.57;;;20.40;93.20;;;;;;5071040;28;20029;-61
2021/09/09 01:46:48;;;;;;;8.57;7.32;;;20.40;93.40;;;;;;5068827;28;20138;-61
2021/09/09 01:49:14;;;;;;;10.18;6.43;;;20.40;93.50;;;;;;5073392;28;20112;-61
2021/09/09 01:51:40;;;;;;;7.43;6.57;;;20.40;93.40;;;;;;5074341;28;20107;-61
2021/09/09 01:54:06;;;;;;;10.50;6.70;;;20.40;93.40;;;;;;5074521;28;20150;-61
2021/09/09 01:56:31;;;;;;;7.25;6.40;;;20.40;93.40;;;;;;5074632;28;20355;-61
2021/09/09 01:58:57;;;;;;;7.32;6.25;;;20.50;93.50;;;;;;5074053;28;20056;-61
2021/09/09 02:01:23;;;;;;;8.82;6.68;;;20.50;93.50;;;;;;5074389;28;20458;-61
2021/09/09 02:03:49;;;;;;;9.30;6.55;;;20.50;93.40;;;;;;5074247;28;20039;-61
2021/09/09 02:06:15;;;;;;;7.18;6.13;;;20.50;93.40;;;;;;5074781;28;20037;-60
2021/09/09 02:08:41;;;;;;;16.45;6.68;;;20.50;93.40;;;;;;5072386;28;20458;-62
2021/09/09 02:11:07;;;;;;;9.70;6.75;;;20.50;93.40;;;;;;5073047;28;20171;-61
2021/09/09 02:13:34;;;;;;;7.07;6.28;;;20.60;93.20;;;;;;5074047;28;20100;-61
2021/09/09 02:15:59;;;;;;;8.85;5.53;;;20.50;93.00;;;;;;5074443;28;20430;-60
2021/09/09 02:18:25;;;;;;;8.85;6.20;;;20.50;93.20;;;;;;5074490;28;20131;-60
2021/09/09 02:20:51;;;;;;;6.88;6.07;;;20.50;93.10;;;;;;5073320;28;20082;-60
2021/09/09 02:23:16;;;;;;;8.63;6.38;;;20.40;93.10;;;;;;5074069;28;20454;-60
2021/09/09 02:25:42;;;;;;;8.70;6.18;;;20.40;93.20;;;;;;5073190;28;20135;-60
2021/09/09 02:28:08;;;;;;;8.32;5.82;;;20.50;93.20;;;;;;5074071;28;20330;-60
2021/09/09 02:30:34;;;;;;;8.90;5.90;;;20.40;93.10;;;;;;5072698;28;20031;-60
2021/09/09 02:32:59;;;;;;;8.80;6.28;;;20.40;93.20;;;;;;5071766;28;20123;-60
2021/09/09 02:35:25;;;;;;;10.15;5.80;;;20.50;93.10;;;;;;5073674;28;20108;-60
2021/09/09 02:37:51;;;;;;;8.00;6.70;;;20.40;93.10;;;;;;5073487;28;20035;-61
2021/09/09 02:40:16;;;;;;;9.68;6.65;;;20.40;93.10;;;;;;5074107;28;20024;-61
2021/09/09 02:42:43;;;;;;;8.75;6.50;;;20.40;93.10;;;;;;5073222;28;20033;-61
2021/09/09 02:45:09;;;;;;;6.70;6.00;;;20.40;93.20;;;;;;5073938;28;20031;-59
2021/09/09 02:47:35;;;;;;;8.98;6.93;;;20.40;93.20;;;;;;5072397;28;20033;-60
2021/09/09 02:50:01;;;;;;;7.47;6.05;;;20.50;92.90;;;;;;5073546;28;20039;-60
2021/09/09 02:52:27;;;;;;;7.00;6.03;;;20.40;93.00;;;;;;5073850;28;20420;-60
2021/09/09 02:54:53;;;;;;;10.32;7.03;;;20.40;93.10;;;;;;5072758;28;20117;-60
2021/09/09 02:57:18;;;;;;;8.00;6.75;;;20.40;93.00;;;;;;5073891;28;20525;-59
2021/09/09 02:59:44;;;;;;;7.38;5.97;;;20.30;93.30;;;;;;5072156;28;20024;-60
2021/09/09 03:02:10;;;;;;;8.48;6.60;;;20.30;93.30;;;;;;5073102;28;20101;-60
2021/09/09 03:04:35;;;;;;;9.07;6.10;;;20.20;93.30;;;;;;5073673;28;20498;-59
2021/09/09 03:07:01;;;;;;;11.60;6.78;;;20.20;93.30;;;;;;5072796;28;20103;-60
2021/09/09 03:09:27;;;;;;;8.02;6.65;;;20.10;93.40;;;;;;5071953;28;20033;-60
2021/09/09 03:11:52;;;;;;;7.70;6.40;;;20.20;93.30;;;;;;5071595;28;20028;-60
2021/09/09 03:14:18;;;;;;;7.63;6.78;;;20.10;93.60;;;;;;5071866;28;20437;-60
2021/09/09 03:16:44;;;;;;;8.52;6.50;;;20.00;93.70;;;;;;5072661;28;20032;-61
2021/09/09 03:19:10;;;;;;;8.38;6.75;;;20.10;93.60;;;;;;5071969;28;20390;-60
2021/09/09 03:21:35;;;;;;;9.18;5.97;;;19.90;94.10;;;;;;5071682;28;20172;-61
2021/09/09 03:24:01;;;;;;;9.57;6.18;;;19.90;93.90;;;;;;5072201;28;20377;-61
2021/09/09 03:26:27;;;;;;;9.57;6.50;;;20.00;93.90;;;;;;5072622;28;20371;-60
2021/09/09 03:28:52;;;;;;;8.73;7.05;;;19.90;93.90;;;;;;5072412;28;20025;-61
2021/09/09 03:31:18;;;;;;;12.52;7.30;;;19.80;94.20;;;;;;5072833;28;20028;-61
2021/09/09 03:33:44;;;;;;;9.95;6.88;;;19.80;94.10;;;;;;5070471;28;20029;-61
2021/09/09 03:36:09;;;;;;;7.75;5.88;;;19.90;94.10;;;;;;5072512;28;20020;-60
2021/09/09 03:38:35;;;;;;;7.88;7.07;;;19.90;94.20;;;;;;5072902;28;20025;-61
2021/09/09 03:41:00;;;;;;;10.80;6.65;;;19.90;94.40;;;;;;5071734;28;20071;-61
2021/09/09 03:43:26;;;;;;;9.55;7.05;;;19.90;94.40;;;;;;5071084;28;20500;-61
2021/09/09 03:45:52;;;;;;;10.60;7.38;;;19.90;94.30;;;;;;5071953;28;20020;-61
2021/09/09 03:48:17;;;;;;;8.65;6.60;;;19.80;94.30;;;;;;5072140;28;20390;-60
2021/09/09 03:50:43;;;;;;;9.02;6.40;;;19.80;94.60;;;;;;5053771;28;20052;-61
2021/09/09 03:53:08;;;;;;;8.02;6.63;;;19.80;94.60;;;;;;5072027;28;20039;-60
2021/09/09 03:55:34;;;;;;;8.45;6.57;;;19.80;94.60;;;;;;5072433;28;20032;-60
2021/09/09 03:58:00;;;;;;;7.78;6.22;;;19.90;94.50;;;;;;5071741;28;20309;-61
2021/09/09 04:00:26;;;;;;;11.07;7.03;;;19.80;94.70;;;;;;5070913;28;20029;-61
2021/09/09 04:02:51;;;;;;;8.18;7.38;;;19.70;95.10;;;;;;5069765;28;20036;-61
2021/09/09 04:05:17;;;;;;;10.45;6.82;;;19.70;95.20;;;;;;5072320;28;20470;-61
2021/09/09 04:07:43;;;;;;;11.32;6.78;;;19.70;94.80;;;;;;5071573;28;20028;-62
2021/09/09 04:10:09;;;;;;;8.85;6.80;;;19.70;95.00;;;;;;5070272;28;20383;-61
2021/09/09 04:12:35;;;;;;;8.68;7.13;;;19.70;95.00;;;;;;5071858;28;20037;-61
2021/09/09 04:15:02;;;;;;;11.68;7.65;;;19.70;95.00;;;;;;5071399;28;20039;-61
2021/09/09 04:17:28;;;;;;;10.68;6.78;;;19.60;95.10;;;;;;5070648;28;20032;-61
2021/09/09 04:19:55;;;;;;;8.95;7.07;;;19.70;95.00;;;;;;5071100;28;20085;-60
2021/09/09 04:22:21;;;;;;;9.63;6.88;;;19.70;95.20;;;;;;5071827;28;20032;-60
2021/09/09 04:24:47;;;;;;;8.77;6.75;;;19.60;95.30;;;;;;5071246;28;20516;-60
2021/09/09 04:27:12;;;;;;;9.90;7.45;;;19.70;95.30;;;;;;5071422;28;20359;-60
2021/09/09 04:29:38;;;;;;;10.93;7.60;;;19.60;95.20;;;;;;5071962;28;20123;-61
2021/09/09 04:32:04;;;;;;;9.25;7.32;;;19.50;95.20;;;;;;5071371;28;20032;-61
2021/09/09 04:34:30;;;;;;;9.15;6.53;;;19.60;95.10;;;;;;5071943;28;20039;-61
2021/09/09 04:36:55;;;;;;;10.02;7.68;;;19.60;95.30;;;;;;5070961;28;20025;-61
2021/09/09 04:39:21;;;;;;;10.15;8.10;;;19.60;95.70;;;;;;5071514;28;20028;-61
2021/09/09 04:41:47;;;;;;;13.57;7.60;;;19.50;95.70;;;;;;5069331;28;20110;-61
2021/09/09 04:44:12;;;;;;;8.90;7.20;;;19.50;95.60;;;;;;5071898;28;20115;-61
2021/09/09 04:46:38;;;;;;;14.52;7.95;;;19.60;95.70;;;;;;5070261;28;20070;-61
2021/09/09 04:49:04;;;;;;;10.88;7.57;;;19.50;95.70;;;;;;5069159;28;20082;-61
2021/09/09 04:51:29;;;;;;;13.20;7.50;;;19.60;95.70;;;;;;5071390;28;20143;-61
2021/09/09 04:53:55;;;;;;;9.23;7.35;;;19.60;95.90;;;;;;5069572;28;20101;-60
2021/09/09 04:56:20;;;;;;;9.63;6.70;;;19.60;95.90;;;;;;5071332;28;20584;-61
2021/09/09 04:58:46;;;;;;;9.70;7.18;;;19.60;96.00;;;;;;5069536;28;20021;-62
2021/09/09 05:01:11;;;;;;;13.40;7.78;;;19.40;95.80;;;;;;5071033;28;20103;-61
2021/09/09 05:03:37;;;;;;;10.02;7.38;;;19.50;96.00;;;;;;5070859;28;20044;-62
2021/09/09 05:06:03;;;;;;;11.77;7.07;;;19.50;96.00;;;;;;5068767;28;20416;-61
2021/09/09 05:08:28;;;;;;;17.17;8.00;;;19.50;96.00;;;;;;5070665;28;20051;-60
2021/09/09 05:10:54;;;;;;;13.82;8.15;;;19.50;96.10;;;;;;5070276;28;20123;-62
2021/09/09 05:13:20;;;;;;;11.90;7.70;;;19.60;96.10;;;;;;5070490;28;20063;-61
2021/09/09 05:15:45;;;;;;;9.15;7.13;;;19.50;96.10;;;;;;5070545;28;20453;-71
2021/09/09 05:18:11;;;;;;;12.65;7.75;;;19.50;96.20;;;;;;5071007;28;20039;-61
2021/09/09 05:20:38;;;;;;;10.75;7.85;;;19.50;96.30;;;;;;5069301;28;20123;-60
2021/09/09 05:23:04;;;;;;;12.43;7.53;;;19.50;96.30;;;;;;5068337;28;20409;-61
2021/09/09 05:25:29;;;;;;;9.95;7.53;;;19.60;96.20;;;;;;5068544;28;20064;-61
2021/09/09 05:27:55;;;;;;;10.15;7.72;;;19.60;96.10;;;;;;5069979;28;20029;-61
2021/09/09 05:30:21;;;;;;;13.10;7.65;;;19.70;96.40;;;;;;5070796;28;20032;-60
2021/09/09 05:32:46;;;;;;;9.57;7.32;;;19.80;96.00;;;;;;5070151;28;20057;-78
2021/09/09 05:35:12;;;;;;;13.32;8.50;;;19.80;95.90;;;;;;5068944;28;20062;-61
2021/09/09 05:37:38;;;;;;;12.20;8.80;;;19.80;96.10;;;;;;5068981;28;20051;-61
2021/09/09 05:40:04;;;;;;;12.35;8.57;;;19.70;95.90;;;;;;5069850;28;20024;-61
2021/09/09 05:42:30;;;;;;;12.07;8.55;;;19.50;96.10;;;;;;5069991;28;20431;-60
2021/09/09 05:44:56;;;;;;;13.10;8.32;;;19.50;96.30;;;;;;5069507;28;20024;-61
2021/09/09 05:47:22;;;;;;;10.18;8.48;;;19.50;96.50;;;;;;5070407;28;20359;-61
2021/09/09 05:49:48;;;;;;;12.10;8.48;;;19.60;96.40;;;;;;5069370;28;20094;-72
2021/09/09 05:52:13;;;;;;;14.88;9.02;;;19.40;96.50;;;;;;5068380;28;20131;-63
2021/09/09 05:54:39;;;;;;;14.55;8.55;;;19.50;96.40;;;;;;5069718;28;20035;-61
2021/09/09 05:57:05;;;;;;;10.70;8.07;;;19.60;96.40;;;;;;5069068;28;20112;-62
2021/09/09 05:59:31;;;;;;;13.30;8.52;;;19.60;96.20;;;;;;5070005;28;20449;-61
2021/09/09 06:01:57;;;;;;;11.30;8.65;;;19.40;96.30;;;;;;5069449;28;20029;-62
2021/09/09 06:04:26;;;;;;;14.40;8.57;;;19.40;96.60;;;;;;5069694;28;20471;-61
2021/09/09 06:06:52;;;;;;;11.18;8.63;;;19.60;96.40;;;;;;5069409;28;20036;-62
2021/09/09 06:09:18;;;;;;;13.23;8.07;;;19.60;96.50;;;;;;5068514;28;20383;-60
2021/09/09 06:11:43;;;;;;;15.65;9.80;;;19.50;96.60;;;;;;5069164;28;20420;-60
2021/09/09 06:14:09;;;;;;;17.77;9.45;;;19.60;96.60;;;;;;5069691;28;20029;-61
2021/09/09 06:16:34;;;;;;;17.13;9.02;;;19.70;96.50;;;;;;5068854;28;20129;-61
2021/09/09 06:19:00;;;;;;;14.55;9.45;;;19.80;96.20;;;;;;5069403;28;20047;-60
2021/09/09 06:21:26;;;;;;;19.05;9.57;;;19.90;96.10;;;;;;5068008;28;20067;-61
2021/09/09 06:23:52;;;;;;;18.23;9.48;;;19.80;96.20;;;;;;5067545;28;20028;-61
2021/09/09 06:26:18;;;;;;;13.05;8.90;;;19.50;96.60;;;;;;5070233;28;20028;-61
2021/09/09 06:28:45;;;;;;;18.63;8.82;;;19.60;96.60;;;;;;5068239;28;20458;-61
2021/09/09 06:31:11;;;;;;;15.05;9.52;;;19.60;96.50;;;;;;5069295;28;20102;-61
2021/09/09 06:33:37;;;;;;;16.48;9.80;;;19.60;96.60;;;;;;5069793;28;20028;-60
2021/09/09 06:36:02;;;;;;;14.70;10.35;;;19.60;96.50;;;;;;5072645;28;20027;-60
2021/09/09 06:38:28;;;;;;;25.08;10.88;;;19.50;96.70;;;;;;5073455;28;20104;-61
2021/09/09 06:40:54;;;;;;;18.15;10.02;;;19.70;96.70;;;;;;5071449;28;20029;-61
2021/09/09 06:43:20;;;;;;;18.65;10.52;;;20.00;96.40;;;;;;5073207;28;20029;-63
2021/09/09 06:45:46;;;;;;;20.52;9.68;;;19.90;96.50;;;;;;5072777;28;20411;-61
2021/09/09 06:48:11;;;;;;;17.27;9.65;;;20.10;96.20;;;;;;5073253;28;20108;-61
2021/09/09 06:50:38;;;;;;;21.65;10.20;;;20.20;96.00;;;;;;5073199;28;20036;-61
2021/09/09 06:53:03;;;;;;;15.10;9.30;;;20.40;95.80;;;;;;5071615;28;20055;-60
2021/09/09 06:55:29;;;;;;;15.55;9.23;;;20.30;95.90;;;;;;5072467;28;20438;-61
2021/09/09 06:57:55;;;;;;;21.25;10.10;;;20.60;95.60;;;;;;5070774;28;20493;-62
2021/09/09 07:00:20;;;;;;;19.15;9.82;;;20.70;95.50;;;;;;5072893;28;20062;-60
2021/09/09 07:02:46;;;;;;;26.02;9.75;;;20.80;95.20;;;;;;5072965;28;20424;-62
2021/09/09 07:05:11;;;;;;;16.45;9.80;;;20.90;95.20;;;;;;5072227;28;20033;-61
2021/09/09 07:07:39;;;;;;;13.55;9.80;;;21.00;95.00;;;;;;5072938;28;20032;-61
2021/09/09 07:10:06;;;;;;;22.88;9.82;;;20.90;95.20;;;;;;5070527;28;20081;-61
2021/09/09 07:12:32;;;;;;;22.98;9.63;;;20.90;95.00;;;;;;5073048;28;20032;-62
2021/09/09 07:14:57;;;;;;;18.20;9.70;;;20.90;95.30;;;;;;5072162;28;20323;-61
2021/09/09 07:17:23;;;;;;;19.08;10.20;;;21.20;95.10;;;;;;5070970;28;20386;-61
2021/09/09 07:19:48;;;;;;;19.73;9.93;;;21.40;94.70;;;;;;5072312;28;20032;-61
2021/09/09 07:22:14;;;;;;;18.02;10.05;;;21.60;94.60;;;;;;5070459;28;20066;-61
2021/09/09 07:24:39;;;;;;;15.48;9.32;;;21.80;94.30;;;;;;5070651;28;20049;-61
2021/09/09 07:27:05;;;;;;;14.90;9.18;;;21.90;94.10;;;;;;5070421;28;20119;-60
2021/09/09 07:29:31;;;;;;;21.25;10.02;;;22.10;94.00;;;;;;5072075;28;20040;-61
2021/09/09 07:31:56;;;;;;;23.75;10.57;;;22.10;93.70;;;;;;5071736;28;20453;-61
2021/09/09 07:34:22;;;;;;;20.98;10.20;;;22.00;93.80;;;;;;5070780;28;20028;-62
2021/09/09 07:36:48;;;;;;;17.70;10.00;;;22.20;93.80;;;;;;5070867;28;20036;-62
2021/09/09 07:39:14;;;;;;;14.20;9.85;;;22.50;93.70;;;;;;5071306;28;20449;-62
2021/09/09 07:41:39;;;;;;;20.42;10.65;;;22.70;93.30;;;;;;5072151;28;20044;-62
2021/09/09 07:44:05;;;;;;;27.05;10.50;;;22.80;92.90;;;;;;5071574;28;20035;-61
2021/09/09 07:46:31;;;;;;;22.05;10.48;;;22.70;92.90;;;;;;5071891;28;20406;-61
2021/09/09 07:48:57;;;;;;;20.88;8.13;;;22.70;93.10;;;;;;5070183;28;20138;-62
2021/09/09 07:51:22;;;;;;;17.85;9.65;;;23.10;92.90;;;;;;5070500;28;20051;-61
2021/09/09 07:53:50;;;;;;;20.83;8.70;;;23.40;92.70;;;;;;5071704;28;20390;-62
2021/09/09 07:56:16;;;;;;;23.35;9.82;;;23.60;92.50;;;;;;5071191;28;20032;-61
2021/09/09 07:58:46;;;;;;;14.63;9.70;;;23.80;91.80;;;;;;5071896;28;20069;-61
2021/09/09 08:01:12;;;;;;;19.55;8.93;;;23.90;91.60;;;;;;5071327;28;20028;-62
2021/09/09 08:03:37;;;;;;;20.30;9.30;;;24.10;91.40;;;;;;5070280;28;20430;-61
2021/09/09 08:06:03;;;;;;;12.98;8.65;;;24.10;91.30;;;;;;5069888;28;20029;-61
2021/09/09 08:08:29;;;;;;;20.42;9.65;;;24.30;91.10;;;;;;5071549;28;20107;-61
2021/09/09 08:10:54;;;;;;;25.35;10.32;;;24.30;91.10;;;;;;5071604;28;20051;-61
2021/09/09 08:13:20;;;;;;;16.00;9.40;;;24.10;91.10;;;;;;5070853;28;20361;-61
2021/09/09 08:15:45;;;;;;;23.45;10.10;;;24.00;91.20;;;;;;5070151;28;20399;-61
2021/09/09 08:18:11;;;;;;;14.98;9.93;;;24.00;91.20;;;;;;5069482;28;20357;-61
2021/09/09 08:20:37;;;;;;;16.98;10.32;;;24.00;91.10;;;;;;5069612;28;20020;-61
2021/09/09 08:23:02;;;;;;;15.07;8.77;;;24.20;90.80;;;;;;5069218;28;20037;-61
2021/09/09 08:25:28;;;;;;;16.98;8.60;;;24.40;91.00;;;;;;5071403;28;20474;-61
2021/09/09 08:27:54;;;;;;;21.08;10.35;;;24.90;90.80;;;;;;5071028;28;20366;-61
2021/09/09 08:30:19;;;;;;;14.05;10.10;;;25.10;89.90;;;;;;5069373;28;20035;-62
2021/09/09 08:32:45;;;;;;;12.65;9.13;;;25.00;89.70;;;;;;5071312;28;20120;-62
2021/09/09 08:35:11;;;;;;;22.25;10.63;;;24.90;89.60;;;;;;5070766;28;20062;-62
2021/09/09 08:37:37;;;;;;;16.33;9.98;;;24.90;90.10;;;;;;5069958;28;20112;-62
2021/09/09 08:40:07;;;;;;;12.27;9.10;;;24.30;90.80;;;;;;5070473;28;20025;-62
2021/09/09 08:42:33;;;;;;;12.77;9.52;;;24.50;90.60;;;;;;5069794;28;20517;-61
2021/09/09 08:44:59;;;;;;;12.60;9.77;;;24.80;90.30;;;;;;5070827;28;20123;-64
2021/09/09 08:47:25;;;;;;;14.05;8.32;;;24.90;90.20;;;;;;5069730;28;20028;-62
2021/09/09 08:49:51;;;;;;;14.48;9.68;;;24.60;90.60;;;;;;5069667;28;20131;-61
2021/09/09 08:52:17;;;;;;;10.25;8.93;;;24.60;90.80;;;;;;5070195;28;20028;-62
2021/09/09 08:54:43;;;;;;;16.52;9.27;;;24.50;90.80;;;;;;5069846;28;20024;-62
2021/09/09 08:57:08;;;;;;;14.25;9.30;;;24.50;90.90;;;;;;5069981;28;20028;-62
2021/09/09 08:59:35;;;;;;;9.98;8.90;;;24.60;90.80;;;;;;5070755;28;20023;-62
2021/09/09 09:02:06;;;;;;;14.95;8.07;;;25.10;90.60;;;;;;5069972;28;20037;-63
2021/09/09 09:04:33;;;;;;;16.17;8.23;;;25.30;90.30;;;;;;5068846;28;20032;-62
2021/09/09 09:07:00;;;;;;;15.63;9.00;;;24.90;90.40;;;;;;5068589;28;20130;-78
2021/09/09 09:09:31;;;;;;;16.60;8.68;;;24.70;90.50;;;;;;5070533;28;20047;-61
2021/09/09 09:11:57;;;;;;;11.98;7.90;;;24.90;90.50;;;;;;5070433;28;20043;-61
2021/09/09 09:14:25;;;;;;;12.05;8.20;;;24.70;90.80;;;;;;5069744;28;20420;-61
2021/09/09 09:16:54;;;;;;;12.32;8.45;;;24.80;90.50;;;;;;5068767;28;20116;-62
2021/09/09 09:19:32;;;;;;;13.32;9.05;;;25.00;90.80;;;;;;5069647;28;20502;-62
2021/09/09 09:22:08;;;;;;;12.75;7.57;;;25.30;90.20;;;;;;5070509;28;20110;-65
2021/09/09 09:24:44;;;;;;;13.13;8.02;;;25.40;90.40;;;;;;5069984;28;20044;-62
2021/09/09 09:27:21;;;;;;;10.82;7.30;;;25.40;90.30;;;;;;5069646;28;20028;-62
2021/09/09 09:30:01;;;;;;;11.88;8.02;;;25.60;90.10;;;;;;5070602;28;20037;-62
2021/09/09 09:32:27;;;;;;;13.52;7.10;;;25.60;90.00;;;;;;5068865;28;20064;-63
2021/09/09 09:35:11;;;;;;;9.77;7.13;;;25.60;90.00;;;;;;5068949;28;20139;-62
2021/09/09 09:37:48;;;;;;;7.72;7.00;;;25.90;89.40;;;;;;5068615;28;20032;-62
2021/09/09 09:40:42;;;;;;;9.60;6.95;;;25.90;89.10;;;;;;5068255;28;20353;-62
2021/09/09 09:43:10;;;;;;;12.63;6.72;;;26.00;88.50;;;;;;5067638;28;20048;-57
2021/09/09 09:45:36;;;;;;;13.02;7.50;;;25.90;88.80;;;;;;5069125;28;20028;-58
2021/09/09 09:48:02;;;;;;;8.65;6.63;;;26.00;89.80;;;;;;5069719;28;20331;-60
2021/09/09 09:50:39;;;;;;;11.52;7.30;;;26.10;89.50;;;;;;5069387;28;20219;-63
2021/09/09 09:53:18;;;;;;;11.20;7.18;;;26.40;88.00;;;;;;5069850;28;20476;-62
2021/09/09 09:55:45;;;;;;;12.65;6.82;;;26.30;88.60;;;;;;5068889;28;20161;-62
2021/09/09 09:58:11;;;;;;;8.55;6.43;;;26.50;87.70;;;;;;5068278;28;20137;-62
2021/09/09 10:00:37;;;;;;;7.68;5.97;;;26.70;87.40;;;;;;5068618;28;20032;-61
2021/09/09 10:03:03;;;;;;;16.02;6.40;;;26.90;86.40;;;;;;5068002;28;20056;-66
2021/09/09 10:05:32;;;;;;;8.75;5.55;;;26.80;86.40;;;;;;5068894;28;20039;-62
2021/09/09 10:07:59;;;;;;;9.13;5.47;;;26.90;86.70;;;;;;5070214;28;20117;-62
2021/09/09 10:10:25;;;;;;;11.77;6.07;;;27.00;86.10;;;;;;5071767;28;20035;-62
2021/09/09 10:12:51;;;;;;;11.55;5.50;;;27.30;85.50;;;;;;5072130;28;20029;-61
2021/09/09 10:15:20;;;;;;;8.35;5.47;;;27.20;85.10;;;;;;5073248;28;20185;-62
2021/09/09 10:17:47;;;;;;;9.57;5.90;;;27.20;85.20;;;;;;5073476;28;20055;-61
2021/09/09 10:20:39;;;;;;;11.55;5.93;;;27.20;85.20;;;;;;5072906;28;20029;-62
2021/09/09 10:23:10;;;;;;;8.52;5.57;;;27.50;85.40;;;;;;5072866;28;20450;-63
2021/09/09 10:25:40;;;;;;;7.57;5.68;;;27.60;84.80;;;;;;5071843;28;20332;-62
2021/09/09 10:28:45;;;;;;;10.52;5.75;;;28.00;84.20;;;;;;5071646;28;20040;-62
2021/09/09 10:31:19;;;;;;;9.27;5.78;;;28.30;84.00;;;;;;5072329;28;20048;-62
2021/09/09 10:33:49;;;;;;;8.10;5.60;;;28.20;83.50;;;;;;5073237;28;20068;-63
2021/09/09 10:36:42;;;;;;;9.65;5.70;;;28.20;84.40;;;;;;5072636;28;20119;-63
2021/09/09 10:39:21;;;;;;;7.13;5.53;;;27.90;83.70;;;;;;5072830;28;20033;-62
2021/09/09 10:41:47;;;;;;;12.73;5.50;;;27.80;83.60;;;;;;5071329;28;20033;-62
2021/09/09 10:44:13;;;;;;;7.97;4.97;;;27.90;84.10;;;;;;5072569;28;20078;-64
2021/09/09 10:46:45;;;;;;;7.80;5.25;;;27.80;83.90;;;;;;5073374;28;20111;-63
2021/09/09 10:49:20;;;;;;;8.38;6.32;;;27.80;84.00;;;;;;5072786;28;20354;-63
2021/09/09 10:52:08;;;;;;;8.82;5.38;;;28.00;84.40;;;;;;5073313;28;20028;-62
2021/09/09 10:55:02;;;;;;;7.35;5.45;;;28.20;83.90;;;;;;5073498;28;20392;-62
2021/09/09 10:57:28;;;;;;;9.50;5.45;;;28.60;83.50;;;;;;5072511;28;20131;-61
2021/09/09 10:59:54;;;;;;;9.18;5.40;;;28.80;82.70;;;;;;5073093;28;20057;-62
2021/09/09 11:02:20;;;;;;;7.85;5.00;;;28.90;82.50;;;;;;5071649;28;20032;-62
2021/09/09 11:04:48;;;;;;;8.98;4.93;;;29.10;82.50;;;;;;5071190;28;20032;-63
2021/09/09 11:07:30;;;;;;;7.07;5.60;;;29.20;81.90;;;;;;5072236;28;20074;-62
2021/09/09 11:10:04;;;;;;;9.60;5.78;;;29.20;81.80;;;;;;5071629;28;20087;-62
2021/09/09 11:12:40;;;;;;;6.22;5.20;;;29.20;81.40;;;;;;5072438;28;20032;-62
2021/09/09 11:15:12;;;;;;;7.82;4.90;;;29.20;82.10;;;;;;5071357;28;20108;-78
2021/09/09 11:17:38;;;;;;;6.40;5.22;;;29.60;82.00;;;;;;5073239;28;20131;-62
2021/09/09 11:20:10;;;;;;;9.80;4.90;;;29.70;80.40;;;;;;5072236;28;20035;-62
2021/09/09 11:22:38;;;;;;;10.93;6.13;;;29.40;80.90;;;;;;5071493;28;20033;-61
2021/09/09 11:25:17;;;;;;;6.47;5.07;;;29.40;80.60;;;;;;5072444;28;20047;-62
2021/09/09 11:27:42;;;;;;;13.13;5.50;;;29.50;81.20;;;;;;5070976;28;20088;-61
2021/09/09 11:30:09;;;;;;;10.82;5.72;;;29.30;80.90;;;;;;5071491;28;20063;-67
2021/09/09 11:32:34;;;;;;;9.88;4.95;;;29.60;80.80;;;;;;5070494;28;20062;-61
2021/09/09 11:35:10;;;;;;;6.75;5.32;;;29.10;81.00;;;;;;5072149;28;20028;-63
2021/09/09 11:37:46;;;;;;;12.88;5.18;;;29.10;81.60;;;;;;5072365;28;20047;-63
2021/09/09 11:40:14;;;;;;;14.75;5.88;;;29.00;81.60;;;;;;5071860;28;20025;-63
2021/09/09 11:42:40;;;;;;;10.43;4.88;;;28.70;82.30;;;;;;5071343;28;20470;-61
2021/09/09 11:45:06;;;;;;;8.60;6.13;;;28.40;82.80;;;;;;5071462;28;20059;-62
2021/09/09 11:47:32;;;;;;;8.43;6.25;;;28.30;83.10;;;;;;5069766;28;20024;-62
2021/09/09 11:50:06;;;;;;;7.82;5.53;;;28.20;84.10;;;;;;5070386;28;20039;-62
2021/09/09 11:52:32;;;;;;;9.23;6.60;;;28.40;83.60;;;;;;5071143;28;20464;-62
2021/09/09 11:55:07;;;;;;;13.40;6.43;;;28.70;82.80;;;;;;5070491;28;20519;-61
2021/09/09 11:57:39;;;;;;;31.17;6.80;;;28.80;82.10;;;;;;5071427;28;20024;-62
2021/09/09 12:00:06;;;;;;;16.00;6.88;;;28.90;82.80;;;;;;5071739;28;20036;-63
2021/09/09 12:02:32;;;;;;;10.75;7.03;;;28.50;83.20;;;;;;5071020;28;20100;-62
2021/09/09 12:05:01;;;;;;;7.38;6.07;;;28.60;83.70;;;;;;5071450;28;20036;-61
2021/09/09 12:07:29;;;;;;;9.95;6.18;;;28.70;83.70;;;;;;5071053;28;20025;-62
2021/09/09 12:10:00;;;;;;;14.27;7.65;;;28.80;83.40;;;;;;5070169;28;20418;-61
2021/09/09 12:12:30;;;;;;;7.50;6.60;;;28.90;83.50;;;;;;5070054;28;20036;-62
2021/09/09 12:15:04;;;;;;;8.63;6.20;;;29.10;83.10;;;;;;5071640;28;20032;-62
2021/09/09 12:17:31;;;;;;;14.07;6.30;;;29.30;82.60;;;;;;5071372;28;20215;-62
2021/09/09 12:20:02;;;;;;;14.05;5.97;;;29.60;82.30;;;;;;5071523;28;20108;-62
2021/09/09 12:22:54;;;;;;;13.75;6.75;;;29.70;82.30;;;;;;5070009;28;20039;-61
2021/09/09 12:25:33;;;;;;;11.38;6.57;;;29.90;81.70;;;;;;5070720;28;20098;-61
2021/09/09 12:28:15;;;;;;;8.25;6.20;;;30.20;81.40;;;;;;5071872;28;20056;-65
2021/09/09 12:30:46;;;;;;;12.48;6.45;;;30.30;81.40;;;;;;5069931;28;20040;-62
2021/09/09 12:33:21;;;;;;;10.65;6.97;;;30.30;80.90;;;;;;5068754;28;20450;-64
2021/09/09 12:36:08;;;;;;;12.02;6.35;;;30.10;81.30;;;;;;5072006;28;20041;-63
2021/09/09 12:38:37;;;;;;;8.98;6.28;;;30.20;82.30;;;;;;5069371;28;20024;-63
2021/09/09 12:41:04;;;;;;;10.25;6.47;;;30.30;81.60;;;;;;5069774;28;20025;-62
2021/09/09 12:43:34;;;;;;;14.60;7.57;;;30.70;81.10;;;;;;5070530;28;20120;-62